createdAt,value
2023-02-08T00:01:33.087Z,94.30
2023-02-08T00:04:01.422Z,102.50
2023-02-08T00:06:31.361Z,92.43
2023-02-08T00:09:01.291Z,90.45
2023-02-08T00:11:29.494Z,91.72
2023-02-08T00:13:58.005Z,90.18
2023-02-08T00:16:26.157Z,84.70
2023-02-08T00:18:54.256Z,93.30
2023-02-08T00:21:22.421Z,86.43
2023-02-08T00:23:51.963Z,91.38
2023-02-08T00:26:20.221Z,94.10
2023-02-08T00:28:48.431Z,92.05
2023-02-08T00:31:19.340Z,90.93
2023-02-08T00:33:48.408Z,86.47
2023-02-08T00:36:17.009Z,82.55
2023-02-08T00:38:45.374Z,86.07
2023-02-08T00:41:15.006Z,88.03
2023-02-08T00:43:43.165Z,83.10
2023-02-08T00:46:11.474Z,87.82
2023-02-08T00:48:39.749Z,87.80
2023-02-08T00:51:09.824Z,89.97
2023-02-08T00:53:39.381Z,103.65
2023-02-08T00:56:08.300Z,93.05
2023-02-08T00:58:38.150Z,85.63
2023-02-08T05:03:04.564Z,71.50
2023-02-08T05:05:34.149Z,67.13
2023-02-08T05:08:02.747Z,68.85
2023-02-08T05:10:30.921Z,65.13
2023-02-08T05:12:59.130Z,69.28
2023-02-08T05:15:27.422Z,66.80
2023-02-08T05:17:55.470Z,67.22
2023-02-08T05:20:23.588Z,71.30
2023-02-08T05:22:53.262Z,70.30
2023-02-08T05:25:21.600Z,73.78
2023-02-08T05:27:49.733Z,71.80
2023-02-08T05:30:18.239Z,71.75
2023-02-08T05:32:46.856Z,74.55
2023-02-08T05:35:15.082Z,70.78
2023-02-08T05:37:43.207Z,78.63
2023-02-08T05:40:13.460Z,71.32
2023-02-08T05:42:42.392Z,73.68
2023-02-08T05:45:12.815Z,74.07
2023-02-08T05:47:41.929Z,70.97
2023-02-08T05:50:10.616Z,68.72
2023-02-08T05:52:38.858Z,75.13
2023-02-08T05:55:08.121Z,75.63
2023-02-08T05:57:38.148Z,74.43
2023-02-08T06:00:07.523Z,77.63
2023-02-08T06:02:44.252Z,74.18
2023-02-08T06:05:12.380Z,74.88
2023-02-08T06:07:40.524Z,75.40
2023-02-08T06:10:11.295Z,80.88
2023-02-08T06:12:41.075Z,78.65
2023-02-08T06:15:10.326Z,76.57
2023-02-08T06:17:38.419Z,75.38
2023-02-08T06:20:07.840Z,86.90
2023-02-08T06:22:36.765Z,82.55
2023-02-08T06:25:05.202Z,77.53
2023-02-08T06:27:33.827Z,85.70
2023-02-08T06:30:03.411Z,88.47
2023-02-08T06:32:31.675Z,83.82
2023-02-08T06:34:59.801Z,81.22
2023-02-08T06:37:28.009Z,76.10
2023-02-08T06:39:56.340Z,87.05
2023-02-08T06:42:24.515Z,82.72
2023-02-08T06:44:55.602Z,83.70
2023-02-08T06:47:25.532Z,85.10
2023-02-08T06:49:53.860Z,82.57
2023-02-08T06:52:22.638Z,78.93
2023-02-08T06:54:51.270Z,82.70
2023-02-08T06:57:19.611Z,81.45
2023-02-08T06:59:48.335Z,86.60
2023-02-08T07:02:21.736Z,81.55
2023-02-08T07:04:51.676Z,72.85
2023-02-08T07:07:19.941Z,70.13
2023-02-08T07:09:48.207Z,68.28
2023-02-08T07:12:16.502Z,72.85
2023-02-08T07:14:47.149Z,64.50
2023-02-08T07:17:15.610Z,67.78
2023-02-08T07:19:43.785Z,71.85
2023-02-08T07:22:13.547Z,73.45
2023-02-08T07:24:42.842Z,69.40
2023-02-08T07:27:13.903Z,67.50
2023-02-08T07:29:42.349Z,68.68
2023-02-08T07:32:11.468Z,69.47
2023-02-08T07:34:40.684Z,69.80
2023-02-08T07:37:09.361Z,61.67
2023-02-08T07:39:38.953Z,62.53
2023-02-08T07:42:07.533Z,67.50
2023-02-08T07:44:42.845Z,72.13
2023-02-08T07:47:11.284Z,65.28
2023-02-08T07:49:39.524Z,72.55
2023-02-08T07:52:07.676Z,81.32
2023-02-08T07:54:35.868Z,70.15
2023-02-08T07:57:05.491Z,75.78
2023-02-08T07:59:33.684Z,75.15
2023-02-08T08:02:01.933Z,67.32
2023-02-08T08:04:30.186Z,70.72
2023-02-08T08:06:58.857Z,71.47
2023-02-08T08:09:27.187Z,73.07
2023-02-08T08:11:55.467Z,75.82
2023-02-08T08:14:24.967Z,79.80
2023-02-08T08:16:53.218Z,81.20
2023-02-08T08:19:21.584Z,76.95
2023-02-08T08:21:49.772Z,79.80
2023-02-08T08:24:17.945Z,75.82
2023-02-08T08:26:46.045Z,78.10
2023-02-08T08:29:14.921Z,81.30
2023-02-08T08:31:45.935Z,74.03
2023-02-08T08:34:14.229Z,74.32
2023-02-08T08:36:42.557Z,75.60
2023-02-08T08:39:11.108Z,73.38
2023-02-08T08:41:39.253Z,76.10
2023-02-08T08:44:07.827Z,79.47
2023-02-08T08:46:36.391Z,84.90
2023-02-08T08:49:06.406Z,79.65
2023-02-08T08:51:35.512Z,77.28
2023-02-08T08:54:04.512Z,81.95
2023-02-08T08:56:33.617Z,74.45
2023-02-08T08:59:01.955Z,77.50
2023-02-08T09:01:31.422Z,77.40
2023-02-08T09:04:00.688Z,79.20
2023-02-08T09:06:30.617Z,87.60
2023-02-08T09:08:58.863Z,82.28
2023-02-08T09:11:27.100Z,77.43
2023-02-08T09:13:56.369Z,84.75
2023-02-08T09:16:26.301Z,79.18
2023-02-08T09:18:54.564Z,73.60
2023-02-08T09:21:25.842Z,78.53
2023-02-08T09:23:55.615Z,75.07
2023-02-08T09:26:25.118Z,85.25
2023-02-08T09:28:53.620Z,75.78
2023-02-08T09:31:24.117Z,78.38
2023-02-08T09:33:54.040Z,71.35
2023-02-08T09:36:23.047Z,81.22
2023-02-08T09:38:52.613Z,93.68
2023-02-08T09:41:37.636Z,80.18
2023-02-08T09:44:16.986Z,77.88
2023-02-08T09:46:52.954Z,82.55
2023-02-08T09:49:27.072Z,81.57
2023-02-08T09:51:59.117Z,80.97
2023-02-08T09:54:32.903Z,83.00
2023-02-08T09:57:07.082Z,83.18
2023-02-08T09:59:36.337Z,85.22
2023-02-08T10:14:13.289Z,78.32
2023-02-08T10:16:54.762Z,89.43
2023-02-08T10:19:35.975Z,90.05
2023-02-08T10:22:12.944Z,92.28
2023-02-08T10:25:16.324Z,86.43
2023-02-08T10:27:56.816Z,86.95
2023-02-08T10:30:32.918Z,89.93
2023-02-08T10:33:03.342Z,81.60
2023-02-08T10:35:37.216Z,88.88
2023-02-08T10:38:29.728Z,86.05
2023-02-08T10:41:05.655Z,85.22
2023-02-08T10:43:43.519Z,82.85
2023-02-08T10:46:18.087Z,83.63
2023-02-08T10:49:01.337Z,79.13
2023-02-08T10:51:32.214Z,81.82
2023-02-08T10:54:00.319Z,79.70
2023-02-08T10:56:44.215Z,86.22
2023-02-08T10:59:18.545Z,77.25
2023-02-08T11:01:49.705Z,85.60
2023-02-08T11:04:19.905Z,83.35
2023-02-08T11:06:49.672Z,79.68
2023-02-08T11:09:26.077Z,89.65
2023-02-08T11:11:55.365Z,89.28
2023-02-08T11:14:40.967Z,76.03
2023-02-08T11:17:29.098Z,77.68
2023-02-08T11:19:57.584Z,79.72
2023-02-08T11:22:27.952Z,76.75
2023-02-08T11:24:58.837Z,78.40
2023-02-08T11:27:35.420Z,81.10
2023-02-08T11:30:23.247Z,77.90
2023-02-08T11:33:18.249Z,80.40
2023-02-08T11:36:02.598Z,77.07
2023-02-08T11:38:32.079Z,86.50
2023-02-08T11:41:03.228Z,84.85
2023-02-08T11:43:36.160Z,80.45
2023-02-08T11:46:06.387Z,75.65
2023-02-08T11:48:45.704Z,77.03
2023-02-08T11:51:24.200Z,78.30
2023-02-08T11:53:52.349Z,75.60
2023-02-08T11:56:22.519Z,75.32
2023-02-08T11:59:07.745Z,72.45
2023-02-08T12:01:37.479Z,71.60
2023-02-08T12:04:09.608Z,71.90
2023-02-08T12:07:17.659Z,73.97
2023-02-08T12:10:11.993Z,66.40
2023-02-08T12:13:06.101Z,71.47
2023-02-08T12:15:57.479Z,67.30
2023-02-08T12:19:01.920Z,78.33
2023-02-08T12:24:07.406Z,68.63
2023-02-08T12:27:04.556Z,70.68
2023-02-08T12:29:47.779Z,66.03
2023-02-08T12:32:42.529Z,70.25
2023-02-08T12:35:50.922Z,70.80
2023-02-08T12:39:07.840Z,81.60
2023-02-08T12:41:53.842Z,74.93
2023-02-08T12:44:35.160Z,74.20
2023-02-08T12:47:20.826Z,78.32
2023-02-08T12:50:02.974Z,77.47
2023-02-08T12:52:37.292Z,77.63
2023-02-08T12:55:14.967Z,75.55
2023-02-08T12:57:45.761Z,76.70
2023-02-08T13:00:25.542Z,75.03
2023-02-08T13:03:02.291Z,74.40
2023-02-08T13:05:36.553Z,73.07
2023-02-08T13:08:14.260Z,74.15
2023-02-08T13:10:48.367Z,68.00
2023-02-08T13:13:20.303Z,81.28
2023-02-08T13:15:55.416Z,68.13
2023-02-08T13:18:28.558Z,68.13
2023-02-08T13:21:01.095Z,72.03
2023-02-08T13:23:38.432Z,70.85
2023-02-08T13:26:17.163Z,68.07
2023-02-08T13:28:48.362Z,74.53
2023-02-08T13:31:21.335Z,75.28
2023-02-08T13:34:01.366Z,72.53
2023-02-08T13:36:32.476Z,67.00
2023-02-08T13:39:02.620Z,80.20
2023-02-08T13:41:33.865Z,67.93
2023-02-08T13:44:04.818Z,71.32
2023-02-08T13:46:39.614Z,70.40
2023-02-08T13:49:07.734Z,74.20
2023-02-08T13:52:03.469Z,65.97
2023-02-08T13:54:33.126Z,70.60
2023-02-08T13:57:03.124Z,75.15
2023-02-08T13:59:36.982Z,66.72
2023-02-08T14:02:28.688Z,66.90
2023-02-08T14:05:40.077Z,72.65
2023-02-08T14:08:14.152Z,64.45
2023-02-08T14:10:48.113Z,69.00
2023-02-08T14:13:27.772Z,68.88
2023-02-08T14:16:28.403Z,73.60
2023-02-08T14:18:58.886Z,68.65
2023-02-08T14:21:38.046Z,71.80
2023-02-08T14:24:08.180Z,67.07
2023-02-08T14:26:37.691Z,75.60
2023-02-08T14:29:08.166Z,71.63
2023-02-08T14:31:43.122Z,70.53
2023-02-08T14:34:34.901Z,65.45
2023-02-08T14:37:26.190Z,71.78
2023-02-08T14:40:44.515Z,69.45
2023-02-08T14:43:35.222Z,63.63
2023-02-08T14:46:36.770Z,66.70
2023-02-08T14:49:11.199Z,68.85
2023-02-08T14:51:42.928Z,65.85
2023-02-08T14:54:22.368Z,67.65
2023-02-08T14:56:57.920Z,65.10
2023-02-08T14:59:31.126Z,68.25
2023-02-08T15:02:03.113Z,58.88
2023-02-08T15:04:32.744Z,60.83
2023-02-08T15:07:22.787Z,61.75
2023-02-08T15:09:51.270Z,66.75
2023-02-08T15:12:26.764Z,69.95
2023-02-08T15:15:00.235Z,71.28
2023-02-08T15:17:35.104Z,60.57
2023-02-08T15:20:08.376Z,62.90
2023-02-08T15:22:39.850Z,69.57
2023-02-08T15:25:25.994Z,62.00
2023-02-08T15:27:56.801Z,65.97
2023-02-08T15:30:36.490Z,64.93
2023-02-08T15:33:10.460Z,62.95
2023-02-08T15:35:40.123Z,68.80
2023-02-08T15:38:16.333Z,62.30
2023-02-08T15:40:44.866Z,63.55
2023-02-08T15:43:14.362Z,63.80
2023-02-08T15:45:42.899Z,67.03
2023-02-08T15:48:13.702Z,71.13
2023-02-08T15:50:43.516Z,65.10
2023-02-08T15:53:16.703Z,64.90
2023-02-08T15:55:48.064Z,72.85
2023-02-08T15:58:21.914Z,65.68
2023-02-08T16:00:51.085Z,72.93
2023-02-08T16:03:23.560Z,67.82
2023-02-08T16:05:55.504Z,64.65
2023-02-08T16:08:28.054Z,66.80
2023-02-08T16:13:28.464Z,70.57
2023-02-08T16:16:08.507Z,72.75
2023-02-08T16:18:45.838Z,68.55
2023-02-08T16:21:27.748Z,68.22
2023-02-08T16:23:57.569Z,67.03
2023-02-08T16:26:28.889Z,67.10
2023-02-08T16:29:02.176Z,66.97
2023-02-08T16:31:35.835Z,71.93
2023-02-08T16:34:06.282Z,69.47
2023-02-08T16:36:38.718Z,67.93
2023-02-08T16:39:36.809Z,71.00
2023-02-08T16:42:15.957Z,70.95
2023-02-08T16:45:13.758Z,74.35
2023-02-08T16:47:43.113Z,74.82
2023-02-08T16:50:13.789Z,67.28
2023-02-08T16:52:43.578Z,71.72
2023-02-08T16:55:19.517Z,72.65
2023-02-08T16:57:49.381Z,73.88
2023-02-08T17:00:22.286Z,75.70
2023-02-08T17:02:50.993Z,72.82
2023-02-08T17:05:20.992Z,76.80
2023-02-08T17:07:50.987Z,77.95
2023-02-08T17:10:24.423Z,78.75
2023-02-08T17:12:57.503Z,84.68
2023-02-08T17:15:32.502Z,97.63
2023-02-08T17:18:00.682Z,90.75
2023-02-08T17:20:30.614Z,94.35
2023-02-08T17:23:01.671Z,83.28
2023-02-08T17:25:33.631Z,82.53
2023-02-08T17:28:03.468Z,86.88
2023-02-08T17:30:36.067Z,96.32
2023-02-08T17:35:37.617Z,94.82
2023-02-08T17:38:07.366Z,123.80
2023-02-08T17:40:37.399Z,95.50
2023-02-08T17:43:06.491Z,95.15
2023-02-08T17:45:39.699Z,103.45
2023-02-08T17:48:10.220Z,88.60
2023-02-08T17:50:38.524Z,87.88
2023-02-08T17:53:08.473Z,81.40
2023-02-08T17:55:36.887Z,79.88
2023-02-08T17:58:07.995Z,82.82
2023-02-08T18:00:36.202Z,76.78
2023-02-08T18:03:07.039Z,83.95
2023-02-08T18:05:35.117Z,76.07
2023-02-08T18:08:03.303Z,80.10
2023-02-08T18:10:34.868Z,82.00
2023-02-08T18:13:04.060Z,78.57
2023-02-08T18:15:32.285Z,76.43
2023-02-08T18:18:00.570Z,80.35
2023-02-08T18:20:29.009Z,75.97
2023-02-08T18:22:57.202Z,83.30
2023-02-08T18:25:25.479Z,82.22
2023-02-08T18:27:55.097Z,87.15
2023-02-08T18:30:25.518Z,81.70
2023-02-08T18:32:53.609Z,76.72
2023-02-08T18:35:22.433Z,80.82
2023-02-08T18:37:50.564Z,78.60
2023-02-08T18:40:19.174Z,81.00
2023-02-08T18:42:47.273Z,86.25
2023-02-08T18:45:16.871Z,78.68
2023-02-08T18:47:45.337Z,75.30
2023-02-08T18:50:13.887Z,77.60
2023-02-08T18:52:42.260Z,81.30
2023-02-08T18:55:10.822Z,75.85
2023-02-08T18:57:39.978Z,69.10
2023-02-08T19:00:09.372Z,79.30
2023-02-08T19:02:39.691Z,76.95
2023-02-08T19:05:08.776Z,77.90
2023-02-08T19:07:38.723Z,79.45
2023-02-08T19:10:08.281Z,74.70
2023-02-08T19:12:37.227Z,71.07
2023-02-08T19:15:06.091Z,69.55
2023-02-08T19:17:34.353Z,76.15
2023-02-08T19:20:03.935Z,77.00
2023-02-08T19:22:32.734Z,74.05
2023-02-08T19:25:00.940Z,75.07
2023-02-08T19:27:31.897Z,74.53
2023-02-08T19:30:00.194Z,74.47
2023-02-08T19:32:28.374Z,74.53
2023-02-08T19:34:56.916Z,90.72
2023-02-08T19:37:27.665Z,89.00
2023-02-08T19:39:56.312Z,84.50
2023-02-08T19:42:24.565Z,82.28
2023-02-08T19:44:52.681Z,76.05
2023-02-08T19:47:22.428Z,80.72
2023-02-08T19:49:51.504Z,77.38
2023-02-08T19:52:20.785Z,78.70
2023-02-08T19:54:50.994Z,78.53
2023-02-08T19:57:21.811Z,79.88
2023-02-08T19:59:50.246Z,86.22
2023-02-08T20:02:18.972Z,79.40
2023-02-08T20:04:49.274Z,76.97
2023-02-08T20:07:17.445Z,79.00
2023-02-08T20:09:48.244Z,79.47
2023-02-08T20:12:18.177Z,75.47
2023-02-08T20:14:47.130Z,73.13
2023-02-08T20:17:15.375Z,77.35
2023-02-08T20:19:43.459Z,73.43
2023-02-08T20:22:13.992Z,73.60
2023-02-08T20:24:43.616Z,73.10
2023-02-08T20:27:12.013Z,72.15
2023-02-08T20:29:43.791Z,73.47
2023-02-08T20:32:14.451Z,72.60
2023-02-08T20:34:50.639Z,73.10
2023-02-08T20:37:27.944Z,74.75
2023-02-08T20:39:56.073Z,71.20
2023-02-08T20:42:27.791Z,71.68
2023-02-08T20:45:00.480Z,67.35
2023-02-08T20:47:31.834Z,70.82
2023-02-08T20:50:03.119Z,69.80
2023-02-08T20:52:38.458Z,70.75
2023-02-08T20:55:07.725Z,72.65
2023-02-08T20:57:36.152Z,71.75
2023-02-08T21:00:07.646Z,77.60
2023-02-08T21:02:36.961Z,78.28
2023-02-08T21:05:06.174Z,81.68
2023-02-08T21:07:40.329Z,77.05
2023-02-08T21:10:09.250Z,89.13
2023-02-08T21:12:38.135Z,79.75
2023-02-08T21:15:09.099Z,71.20
2023-02-08T21:17:40.641Z,78.80
2023-02-08T21:20:10.029Z,81.03
2023-02-08T21:22:38.139Z,86.50
2023-02-08T21:25:06.684Z,79.45
2023-02-08T21:27:34.950Z,74.97
2023-02-08T21:30:03.145Z,75.95
2023-02-08T21:32:32.719Z,69.47
2023-02-08T21:35:01.279Z,61.78
2023-02-08T21:37:29.313Z,71.18
2023-02-08T21:39:57.832Z,63.97
2023-02-08T21:42:26.182Z,65.03
2023-02-08T21:44:54.408Z,62.72
2023-02-08T21:47:22.745Z,69.75
2023-02-08T21:50:09.477Z,69.82
2023-02-08T21:52:55.104Z,70.55
2023-02-08T21:55:25.685Z,68.78
2023-02-08T21:57:53.938Z,69.50
2023-02-08T22:00:22.067Z,68.18
2023-02-08T22:02:50.305Z,70.00
2023-02-08T22:05:22.111Z,62.05
2023-02-08T22:07:52.344Z,64.95
2023-02-08T22:10:23.535Z,71.88
2023-02-08T22:12:53.210Z,60.15
2023-02-08T22:15:23.760Z,62.00
2023-02-08T22:17:55.202Z,59.45
2023-02-08T22:20:25.848Z,59.42
2023-02-08T22:22:55.326Z,60.75
2023-02-08T22:25:24.445Z,61.53
2023-02-08T22:27:52.956Z,65.80
2023-02-08T22:30:22.836Z,63.38
2023-02-08T22:32:55.069Z,56.70
2023-02-08T22:35:23.338Z,52.63
2023-02-08T22:37:53.283Z,58.03
2023-02-08T22:40:21.601Z,60.30
2023-02-08T22:42:49.720Z,60.03
2023-02-08T22:45:18.046Z,59.55
2023-02-08T22:47:46.325Z,55.08
2023-02-08T22:50:15.025Z,56.47
2023-02-08T22:52:43.265Z,57.45
2023-02-08T22:55:13.073Z,54.92
2023-02-08T22:57:43.413Z,59.85
2023-02-08T23:00:15.079Z,53.03
2023-02-08T23:02:45.612Z,54.92
2023-02-08T23:05:14.560Z,54.20
2023-02-08T23:07:42.730Z,59.72
2023-02-08T23:10:13.458Z,51.00
2023-02-08T23:12:41.830Z,54.63
2023-02-08T23:15:12.227Z,55.92
2023-02-08T23:17:40.445Z,51.88
2023-02-08T23:20:10.327Z,52.40
2023-02-08T23:22:38.680Z,53.38
2023-02-08T23:25:07.620Z,55.00
2023-02-08T23:27:37.228Z,52.83
2023-02-08T23:30:09.176Z,54.80
2023-02-08T23:32:37.914Z,60.05
2023-02-08T23:35:06.630Z,53.00
2023-02-08T23:37:34.946Z,53.03
2023-02-08T23:40:03.160Z,46.22
2023-02-08T23:42:31.290Z,58.63
2023-02-08T23:45:02.236Z,51.97
2023-02-08T23:47:31.135Z,57.45
2023-02-08T23:49:59.275Z,47.20
2023-02-08T23:52:27.977Z,55.85
2023-02-08T23:54:56.206Z,51.60
2023-02-08T23:57:24.235Z,54.85
2023-02-08T23:59:55.634Z,56.50
